createdAt,value
2017-07-12T00:00:40.583Z,15
2017-07-12T00:01:59.285Z,15
2017-07-12T00:03:18.032Z,15
2017-07-12T00:04:36.718Z,15
2017-07-12T00:05:55.443Z,15
2017-07-12T00:07:14.169Z,14.9
2017-07-12T00:08:32.896Z,14.9
2017-07-12T00:09:51.600Z,14.9
2017-07-12T00:11:10.332Z,14.8
2017-07-12T00:12:29.062Z,14.8
2017-07-12T00:13:47.799Z,14.8
2017-07-12T00:15:06.485Z,14.7
2017-07-12T00:16:25.177Z,14.7
2017-07-12T00:17:43.901Z,14.6
2017-07-12T00:19:02.586Z,14.6
2017-07-12T00:20:21.319Z,14.6
2017-07-12T00:21:39.999Z,14.7
2017-07-12T00:22:58.742Z,14.7
2017-07-12T00:24:17.428Z,14.7
2017-07-12T00:25:36.130Z,14.7
2017-07-12T00:26:54.837Z,14.7
2017-07-12T00:28:13.613Z,14.8
2017-07-12T00:29:32.349Z,14.8
2017-07-12T00:30:51.044Z,14.8
2017-07-12T00:32:09.735Z,14.8
2017-07-12T00:33:28.419Z,14.8
2017-07-12T00:34:47.149Z,14.8
2017-07-12T00:36:05.835Z,14.9
2017-07-12T00:37:24.566Z,14.9
2017-07-12T00:38:43.265Z,14.9
2017-07-12T00:40:01.984Z,14.9
2017-07-12T00:41:20.676Z,14.8
2017-07-12T00:42:39.373Z,14.8
2017-07-12T00:43:58.083Z,14.8
2017-07-12T00:45:16.818Z,14.8
2017-07-12T00:46:35.500Z,14.8
2017-07-12T00:47:54.197Z,14.8
2017-07-12T00:49:12.901Z,14.7
2017-07-12T00:50:31.596Z,14.7
2017-07-12T00:51:50.335Z,14.6
2017-07-12T00:53:09.107Z,14.4
2017-07-12T00:54:27.805Z,14.3
2017-07-12T00:55:46.497Z,14.1
2017-07-12T00:57:05.178Z,14
2017-07-12T00:58:23.899Z,14
2017-07-12T00:59:42.608Z,13.9
2017-07-12T01:01:01.308Z,13.9
2017-07-12T01:02:20.001Z,13.9
2017-07-12T01:03:38.686Z,13.8
2017-07-12T01:04:57.428Z,13.7
2017-07-12T01:06:16.116Z,13.8
2017-07-12T01:07:34.844Z,13.8
2017-07-12T01:08:53.585Z,13.9
2017-07-12T01:10:12.337Z,13.9
2017-07-12T01:11:31.025Z,14
2017-07-12T01:12:49.759Z,14
2017-07-12T01:14:08.442Z,14.1
2017-07-12T01:15:27.170Z,14.1
2017-07-12T01:16:45.850Z,14.1
2017-07-12T01:18:04.574Z,14.1
2017-07-12T01:19:23.296Z,14.2
2017-07-12T01:20:41.991Z,14.1
2017-07-12T01:22:00.668Z,14.2
2017-07-12T01:23:19.381Z,14.2
2017-07-12T01:24:38.055Z,14.2
2017-07-12T01:25:56.760Z,14.2
2017-07-12T01:27:15.498Z,14.2
2017-07-12T01:28:34.192Z,14.2
2017-07-12T01:29:52.882Z,14.3
2017-07-12T01:31:11.605Z,14.3
2017-07-12T01:32:30.333Z,14.3
2017-07-12T01:33:49.087Z,14.4
2017-07-12T01:35:07.773Z,14.4
2017-07-12T01:36:26.482Z,14.3
2017-07-12T01:37:45.227Z,14.2
2017-07-12T01:39:03.938Z,14.1
2017-07-12T01:40:22.618Z,14.1
2017-07-12T01:41:41.364Z,14.1
2017-07-12T01:43:00.035Z,14
2017-07-12T01:44:18.729Z,14
2017-07-12T01:45:37.496Z,14
2017-07-12T01:46:56.212Z,14
2017-07-12T01:48:14.938Z,14
2017-07-12T01:49:33.623Z,13.9
2017-07-12T01:50:52.357Z,13.9
2017-07-12T01:52:11.041Z,13.9
2017-07-12T01:53:29.732Z,13.9
2017-07-12T01:54:48.467Z,13.9
2017-07-12T01:56:07.154Z,13.9
2017-07-12T01:57:25.873Z,13.9
2017-07-12T01:58:44.602Z,13.8
2017-07-12T02:00:03.329Z,13.8
2017-07-12T02:01:22.047Z,13.7
2017-07-12T02:02:40.771Z,13.8
2017-07-12T02:03:59.452Z,13.7
2017-07-12T02:05:18.137Z,13.7
2017-07-12T02:06:36.859Z,13.6
2017-07-12T02:07:55.597Z,13.6
2017-07-12T02:09:14.317Z,13.5
2017-07-12T02:10:33.032Z,13.5
2017-07-12T02:11:51.718Z,13.5
2017-07-12T02:13:10.413Z,13.5
2017-07-12T02:14:29.136Z,13.5
2017-07-12T02:15:47.816Z,13.5
2017-07-12T02:17:06.496Z,13.5
2017-07-12T02:18:25.232Z,13.5
2017-07-12T02:19:43.948Z,13.5
2017-07-12T02:21:02.678Z,13.5
2017-07-12T02:22:21.361Z,13.6
2017-07-12T02:23:40.099Z,13.6
2017-07-12T02:24:58.848Z,13.6
2017-07-12T02:26:17.573Z,13.6
2017-07-12T02:27:36.273Z,13.6
2017-07-12T02:28:54.967Z,13.7
2017-07-12T02:30:13.654Z,13.7
2017-07-12T02:31:32.414Z,13.8
2017-07-12T02:32:51.153Z,13.8
2017-07-12T02:34:09.932Z,13.8
2017-07-12T02:35:28.614Z,13.8
2017-07-12T02:36:47.360Z,13.8
2017-07-12T02:38:06.086Z,13.8
2017-07-12T02:39:24.764Z,13.9
2017-07-12T02:40:43.443Z,13.9
2017-07-12T02:42:02.146Z,13.9
2017-07-12T02:43:20.831Z,13.9
2017-07-12T02:44:39.587Z,14
2017-07-12T02:45:58.281Z,14
2017-07-12T02:47:17.001Z,14
2017-07-12T02:48:35.691Z,14.1
2017-07-12T02:49:54.408Z,14.1
2017-07-12T02:51:13.088Z,14.1
2017-07-12T02:52:31.770Z,14.1
2017-07-12T02:53:50.450Z,14.1
2017-07-12T02:55:09.213Z,14.1
2017-07-12T02:56:27.902Z,14.1
2017-07-12T02:57:46.595Z,14.1
2017-07-12T02:59:05.331Z,14
2017-07-12T03:00:24.054Z,14
2017-07-12T03:01:42.762Z,14
2017-07-12T03:03:01.447Z,14
2017-07-12T03:04:20.156Z,13.9
2017-07-12T03:05:38.900Z,13.9
2017-07-12T03:06:57.622Z,13.9
2017-07-12T03:08:16.351Z,14
2017-07-12T03:09:35.092Z,14
2017-07-12T03:10:53.793Z,14.1
2017-07-12T03:12:12.535Z,14.1
2017-07-12T03:13:31.264Z,14.2
2017-07-12T03:14:49.940Z,14.2
2017-07-12T03:16:08.699Z,14.2
2017-07-12T03:17:27.413Z,14.3
2017-07-12T03:18:46.090Z,14.3
2017-07-12T03:20:04.774Z,14.3
2017-07-12T03:21:23.479Z,14.3
2017-07-12T03:22:42.182Z,14.3
2017-07-12T03:24:00.903Z,14.4
2017-07-12T03:25:19.604Z,14.4
2017-07-12T03:26:38.302Z,14.3
2017-07-12T03:27:56.992Z,14.4
2017-07-12T03:29:15.691Z,14.4
2017-07-12T03:30:34.426Z,14.4
2017-07-12T03:31:53.113Z,14.4
2017-07-12T03:33:11.799Z,14.4
2017-07-12T03:34:30.493Z,14.4
2017-07-12T03:35:49.177Z,14.4
2017-07-12T03:37:07.937Z,14.4
2017-07-12T03:38:26.621Z,14.5
2017-07-12T03:39:45.346Z,14.5
2017-07-12T03:41:04.061Z,14.5
2017-07-12T03:42:22.752Z,14.6
2017-07-12T03:43:41.431Z,14.6
2017-07-12T03:45:00.159Z,14.6
2017-07-12T03:46:18.855Z,14.6
2017-07-12T03:47:37.605Z,14.6
2017-07-12T03:48:56.321Z,14.6
2017-07-12T03:50:15.059Z,14.7
2017-07-12T03:51:33.820Z,14.7
2017-07-12T03:52:52.537Z,14.7
2017-07-12T03:54:11.222Z,14.7
2017-07-12T03:55:29.909Z,14.7
2017-07-12T03:56:48.616Z,14.7
2017-07-12T03:58:07.369Z,14.7
2017-07-12T03:59:26.086Z,14.8
2017-07-12T04:00:44.772Z,14.8
2017-07-12T04:02:03.481Z,14.8
2017-07-12T04:03:22.241Z,14.8
2017-07-12T04:04:40.923Z,14.8
2017-07-12T04:05:59.605Z,14.8
2017-07-12T04:07:18.315Z,14.8
2017-07-12T04:08:37.028Z,14.8
2017-07-12T04:09:55.708Z,14.8
2017-07-12T04:11:14.399Z,14.8
2017-07-12T04:12:33.088Z,14.9
2017-07-12T04:13:51.791Z,14.9
2017-07-12T04:15:10.483Z,14.9
2017-07-12T04:16:29.193Z,14.9
2017-07-12T04:17:47.889Z,15
2017-07-12T04:19:06.584Z,15
2017-07-12T04:20:25.327Z,15
2017-07-12T04:21:44.041Z,15.1
2017-07-12T04:23:02.721Z,15.1
2017-07-12T04:24:21.438Z,15.1
2017-07-12T04:25:40.129Z,15.1
2017-07-12T04:26:58.827Z,15.2
2017-07-12T04:28:17.561Z,15.2
2017-07-12T04:29:36.290Z,15.2
2017-07-12T04:30:55.010Z,15.2
2017-07-12T04:32:13.698Z,15.2
2017-07-12T04:33:32.479Z,15.3
2017-07-12T04:34:51.176Z,15.3
2017-07-12T04:36:09.857Z,15.3
2017-07-12T04:37:28.571Z,15.3
2017-07-12T04:38:47.285Z,15.4
2017-07-12T04:40:05.994Z,15.4
2017-07-12T04:41:24.724Z,15.4
2017-07-12T04:42:43.411Z,15.4
2017-07-12T04:44:02.091Z,15.4
2017-07-12T04:45:20.781Z,15.4
2017-07-12T04:46:39.482Z,15.4
2017-07-12T04:47:58.219Z,15.5
2017-07-12T04:49:16.912Z,15.5
2017-07-12T04:50:35.599Z,15.5
2017-07-12T04:51:54.339Z,15.6
2017-07-12T04:53:13.012Z,15.6
2017-07-12T04:54:31.748Z,15.7
2017-07-12T04:55:50.471Z,15.8
2017-07-12T04:57:09.167Z,15.8
2017-07-12T04:58:27.850Z,15.9
2017-07-12T04:59:46.580Z,16
2017-07-12T05:01:05.326Z,16
2017-07-12T05:02:24.032Z,16.1
2017-07-12T05:03:42.747Z,16.1
2017-07-12T05:05:01.435Z,16.1
2017-07-12T05:06:20.197Z,16.1
2017-07-12T05:07:38.904Z,16.1
2017-07-12T05:08:57.618Z,16.2
2017-07-12T05:10:16.358Z,16.2
2017-07-12T05:11:35.126Z,16.3
2017-07-12T05:12:53.842Z,16.4
2017-07-12T05:14:12.579Z,16.5
2017-07-12T05:15:31.298Z,16.6
2017-07-12T05:16:50.002Z,16.6
2017-07-12T05:18:08.706Z,16.6
2017-07-12T05:19:27.414Z,16.6
2017-07-12T05:20:46.108Z,16.6
2017-07-12T05:22:04.839Z,16.5
2017-07-12T05:23:23.573Z,16.5
2017-07-12T05:24:42.261Z,16.5
2017-07-12T05:26:00.954Z,16.5
2017-07-12T05:27:19.714Z,16.5
2017-07-12T05:28:38.433Z,16.5
2017-07-12T05:29:57.118Z,16.6
2017-07-12T05:31:15.799Z,16.7
2017-07-12T05:32:34.508Z,16.7
2017-07-12T05:33:53.247Z,16.8
2017-07-12T05:35:11.939Z,16.9
2017-07-12T05:36:30.669Z,17
2017-07-12T05:37:49.369Z,17.1
2017-07-12T05:39:08.101Z,17.2
2017-07-12T05:40:26.777Z,17.3
2017-07-12T05:41:45.462Z,17.4
2017-07-12T05:43:04.193Z,17.4
2017-07-12T05:44:22.876Z,17.5
2017-07-12T05:45:41.584Z,17.6
2017-07-12T05:47:00.313Z,17.6
2017-07-12T05:48:19.089Z,17.8
2017-07-12T05:49:37.801Z,18
2017-07-12T05:50:56.482Z,18
2017-07-12T05:52:15.181Z,18
2017-07-12T05:53:33.917Z,18
2017-07-12T05:54:52.597Z,18
2017-07-12T05:56:11.277Z,18
2017-07-12T05:57:29.965Z,17.9
2017-07-12T05:58:48.681Z,18
2017-07-12T06:00:07.408Z,18
2017-07-12T06:01:26.096Z,18
2017-07-12T06:02:44.816Z,18
2017-07-12T06:04:03.518Z,18
2017-07-12T06:05:22.199Z,18
2017-07-12T06:06:40.910Z,18
2017-07-12T06:07:59.598Z,18.2
2017-07-12T06:09:18.297Z,18.4
2017-07-12T06:10:36.983Z,18.5
2017-07-12T06:11:55.655Z,18.6
2017-07-12T06:13:14.390Z,18.7
2017-07-12T06:14:33.109Z,18.8
2017-07-12T06:15:51.826Z,18.7
2017-07-12T06:17:10.505Z,18.8
2017-07-12T06:18:29.193Z,18.9
2017-07-12T06:19:47.935Z,19.1
2017-07-12T06:21:06.631Z,19.2
2017-07-12T06:22:25.339Z,19.4
2017-07-12T06:23:44.062Z,19.5
2017-07-12T06:25:02.679Z,19.7
2017-07-12T06:26:21.353Z,19.9
2017-07-12T06:27:40.052Z,20
2017-07-12T06:28:58.740Z,20
2017-07-12T06:30:17.479Z,20
2017-07-12T06:31:36.160Z,19.9
2017-07-12T06:32:54.893Z,19.9
2017-07-12T06:34:13.573Z,19.8
2017-07-12T06:35:32.274Z,19.7
2017-07-12T06:36:50.997Z,19.7
2017-07-12T06:38:09.677Z,19.5
2017-07-12T06:39:28.365Z,19.5
2017-07-12T06:40:47.059Z,19.4
2017-07-12T06:42:05.746Z,19.2
2017-07-12T06:43:24.483Z,19.2
2017-07-12T06:44:43.156Z,19.3
2017-07-12T06:46:01.885Z,19.4
2017-07-12T06:47:20.585Z,19.5
2017-07-12T06:48:39.259Z,19.6
2017-07-12T06:49:57.941Z,19.8
2017-07-12T06:51:16.639Z,20
2017-07-12T06:52:35.350Z,20.1
2017-07-12T06:53:54.069Z,20.1
2017-07-12T06:55:12.750Z,20.2
2017-07-12T06:56:31.471Z,20
2017-07-12T06:57:50.160Z,19.9
2017-07-12T06:59:08.862Z,19.8
2017-07-12T07:00:27.590Z,19.8
2017-07-12T07:01:46.309Z,20.1
2017-07-12T07:03:04.992Z,20.5
2017-07-12T07:04:23.673Z,20.8
2017-07-12T07:05:42.407Z,21
2017-07-12T07:07:01.157Z,21.2
2017-07-12T07:08:19.842Z,21.3
2017-07-12T07:09:38.579Z,21.3
2017-07-12T07:10:57.319Z,21.2
2017-07-12T07:12:16.024Z,21.2
2017-07-12T07:13:34.744Z,21.2
2017-07-12T07:14:53.432Z,21.3
2017-07-12T07:16:12.125Z,21.3
2017-07-12T07:17:30.837Z,21.3
2017-07-12T07:18:49.580Z,21.2
2017-07-12T07:20:08.274Z,21.2
2017-07-12T07:21:27.014Z,21.3
2017-07-12T07:22:45.712Z,21.3
2017-07-12T07:24:04.403Z,21.2
2017-07-12T07:25:23.079Z,21.1
2017-07-12T07:26:41.760Z,20.9
2017-07-12T07:28:00.492Z,20.9
2017-07-12T07:29:19.226Z,21
2017-07-12T07:30:37.913Z,21.3
2017-07-12T07:31:56.616Z,21.7
2017-07-12T07:33:15.366Z,22
2017-07-12T07:34:34.080Z,22.4
2017-07-12T07:35:52.787Z,22.5
2017-07-12T07:37:11.474Z,22.3
2017-07-12T07:38:30.207Z,22.4
2017-07-12T07:39:48.917Z,22.4
2017-07-12T07:41:07.653Z,22.5
2017-07-12T07:42:26.351Z,22.5
2017-07-12T07:43:45.100Z,22.1
2017-07-12T07:45:03.801Z,22.1
2017-07-12T07:46:22.521Z,22
2017-07-12T07:47:41.204Z,22
2017-07-12T07:48:59.931Z,22.1
2017-07-12T07:50:18.621Z,22.2
2017-07-12T07:51:37.363Z,22
2017-07-12T07:52:56.056Z,21.8
2017-07-12T07:54:14.802Z,21.7
2017-07-12T07:55:33.536Z,21.7
2017-07-12T07:56:52.226Z,21.8
2017-07-12T07:58:10.948Z,21.8
2017-07-12T07:59:29.653Z,21.9
2017-07-12T08:00:48.357Z,21.9
2017-07-12T08:02:07.093Z,21.9
2017-07-12T08:03:25.795Z,21.7
2017-07-12T08:04:44.526Z,21.6
2017-07-12T08:06:03.219Z,21.7
2017-07-12T08:07:21.958Z,21.6
2017-07-12T08:08:40.659Z,21.5
2017-07-12T08:09:59.349Z,21.5
2017-07-12T08:11:18.042Z,21.6
2017-07-12T08:12:36.772Z,21.8
2017-07-12T08:13:55.451Z,22
2017-07-12T08:15:14.174Z,22
2017-07-12T08:16:32.862Z,22.1
2017-07-12T08:17:51.578Z,22
2017-07-12T08:19:10.249Z,21.9
2017-07-12T08:20:28.994Z,22
2017-07-12T08:21:47.719Z,22.1
2017-07-12T08:23:06.414Z,22.3
2017-07-12T08:24:25.094Z,22.5
2017-07-12T08:25:43.820Z,22.5
2017-07-12T08:27:02.510Z,22.5
2017-07-12T08:28:21.195Z,22.5
2017-07-12T08:29:39.890Z,22.4
2017-07-12T08:30:58.603Z,22.1
2017-07-12T08:32:17.318Z,21.9
2017-07-12T08:33:36.054Z,21.6
2017-07-12T08:34:54.736Z,21.4
2017-07-12T08:36:13.507Z,21.3
2017-07-12T08:37:32.246Z,21.2
2017-07-12T08:38:50.933Z,21
2017-07-12T08:40:09.640Z,20.9
2017-07-12T08:41:28.371Z,20.9
2017-07-12T08:42:47.058Z,20.8
2017-07-12T08:44:05.739Z,20.8
2017-07-12T08:45:24.423Z,20.8
2017-07-12T08:46:43.122Z,20.6
2017-07-12T08:48:01.814Z,20.5
2017-07-12T08:49:20.496Z,20.3
2017-07-12T08:50:39.193Z,20.2
2017-07-12T08:51:57.963Z,19.9
2017-07-12T08:53:16.644Z,19.8
2017-07-12T08:54:35.342Z,19.9
2017-07-12T08:55:54.101Z,19.8
2017-07-12T08:57:12.799Z,19.8
2017-07-12T08:58:31.505Z,19.7
2017-07-12T08:59:50.214Z,19.6
2017-07-12T09:01:08.915Z,19.6
2017-07-12T09:02:27.598Z,19.4
2017-07-12T09:03:46.281Z,19.3
2017-07-12T09:05:05.009Z,19.3
2017-07-12T09:06:23.703Z,19.4
2017-07-12T09:07:42.452Z,19.5
2017-07-12T09:09:01.133Z,19.8
2017-07-12T09:10:19.858Z,19.9
2017-07-12T09:11:38.569Z,19.8
2017-07-12T09:12:57.276Z,19.7
2017-07-12T09:14:15.976Z,19.6
2017-07-12T09:15:34.658Z,19.4
2017-07-12T09:16:53.336Z,19.2
2017-07-12T09:18:12.034Z,19.1
2017-07-12T09:19:30.708Z,19.1
2017-07-12T09:20:49.389Z,19
2017-07-12T09:22:08.072Z,18.9
2017-07-12T09:23:26.833Z,18.9
2017-07-12T09:33:56.408Z,19.3
2017-07-12T09:35:15.095Z,19.5
2017-07-12T09:36:33.786Z,19.8
2017-07-12T09:37:52.461Z,20.1
2017-07-12T09:39:11.182Z,20.3
2017-07-12T09:40:29.901Z,20.4
2017-07-12T09:41:48.599Z,20.6
2017-07-12T09:43:07.332Z,21.1
2017-07-12T09:44:26.080Z,21.3
2017-07-12T09:45:44.798Z,21.5
2017-07-12T09:47:03.534Z,21.7
2017-07-12T09:48:22.225Z,21.8
2017-07-12T09:49:40.994Z,21.5
2017-07-12T09:50:59.685Z,21.2
2017-07-12T09:52:18.371Z,20.8
2017-07-12T09:53:37.073Z,20.5
2017-07-12T09:54:55.782Z,20
2017-07-12T09:56:14.504Z,19.7
2017-07-12T09:57:33.189Z,19.6
2017-07-12T09:58:51.871Z,19.5
2017-07-12T10:00:10.583Z,19.4
2017-07-12T10:01:29.318Z,19.4
2017-07-12T10:02:48.029Z,19.3
2017-07-12T10:04:06.767Z,19.3
2017-07-12T10:05:25.466Z,19.4
2017-07-12T10:06:44.171Z,19.4
2017-07-12T10:08:02.857Z,19.3
2017-07-12T10:09:21.572Z,19.3
2017-07-12T10:10:40.293Z,19.2
2017-07-12T10:11:59.043Z,19.1
2017-07-12T10:13:17.780Z,19.1
2017-07-12T10:14:36.459Z,19
2017-07-12T10:15:55.152Z,18.9
2017-07-12T10:17:13.919Z,18.7
2017-07-12T10:18:32.605Z,18.5
2017-07-12T10:19:51.285Z,18.4
2017-07-12T10:21:09.996Z,18.3
2017-07-12T10:22:28.673Z,18.1
2017-07-12T10:23:47.413Z,17.7
2017-07-12T10:25:06.086Z,17.4
2017-07-12T10:26:24.838Z,17
2017-07-12T10:27:43.569Z,16.6
2017-07-12T10:29:02.311Z,16.4
2017-07-12T10:30:21.041Z,16.2
2017-07-12T10:31:39.785Z,16.1
2017-07-12T10:32:58.475Z,16.2
2017-07-12T10:34:17.164Z,16.1
2017-07-12T10:35:35.851Z,16.1
2017-07-12T10:36:54.596Z,16
2017-07-12T10:38:13.321Z,15.9
2017-07-12T10:39:32.020Z,15.9
2017-07-12T10:40:50.709Z,15.9
2017-07-12T10:42:09.467Z,15.9
2017-07-12T10:43:28.151Z,15.9
2017-07-12T10:44:46.834Z,16
2017-07-12T10:46:05.571Z,16.1
2017-07-12T10:47:24.268Z,16.1
2017-07-12T10:48:42.958Z,16.2
2017-07-12T10:50:01.663Z,16.4
2017-07-12T10:51:20.369Z,16.5
2017-07-12T10:52:39.103Z,16.5
2017-07-12T10:53:57.844Z,16.5
2017-07-12T10:55:16.573Z,16.4
2017-07-12T10:56:35.260Z,16.3
2017-07-12T10:57:54.021Z,16.3
2017-07-12T10:59:12.763Z,16.4
2017-07-12T11:00:31.501Z,16.5
2017-07-12T11:01:50.187Z,16.5
2017-07-12T11:03:08.904Z,16.5
2017-07-12T11:04:27.639Z,16.7
2017-07-12T11:05:46.321Z,16.9
2017-07-12T11:07:05.042Z,17.2
2017-07-12T11:08:23.747Z,17.4
2017-07-12T11:09:42.490Z,17.8
2017-07-12T11:11:01.170Z,18.1
2017-07-12T11:12:19.873Z,18.4
2017-07-12T11:13:38.618Z,18.7
2017-07-12T11:14:57.358Z,18.6
2017-07-12T11:16:16.092Z,18.1
2017-07-12T11:17:34.805Z,17.6
2017-07-12T11:18:53.526Z,17.4
2017-07-12T11:20:12.207Z,17
2017-07-12T11:21:30.912Z,16.8
2017-07-12T11:22:49.611Z,16.7
2017-07-12T11:24:08.350Z,16.7
2017-07-12T11:25:27.032Z,16.6
2017-07-12T11:26:45.739Z,16.6
2017-07-12T11:28:04.428Z,16.8
2017-07-12T11:29:23.184Z,16.9
2017-07-12T11:30:41.902Z,17.2
2017-07-12T11:32:00.610Z,17.5
2017-07-12T11:33:19.301Z,17.7
2017-07-12T11:34:38.001Z,17.9
2017-07-12T11:35:56.682Z,18.1
2017-07-12T11:37:15.364Z,18.4
2017-07-12T11:38:34.099Z,18.2
2017-07-12T11:39:52.790Z,17.7
2017-07-12T11:41:11.472Z,17.4
2017-07-12T11:42:30.150Z,17.6
2017-07-12T11:43:48.913Z,18.1
2017-07-12T11:45:07.656Z,18.6
2017-07-12T11:46:26.366Z,19.2
2017-07-12T11:47:45.053Z,19.6
2017-07-12T11:49:03.782Z,20.1
2017-07-12T11:50:22.472Z,20.4
2017-07-12T11:51:41.157Z,20.3
2017-07-12T11:52:59.841Z,19.8
2017-07-12T11:54:18.571Z,19.6
2017-07-12T11:55:37.332Z,19.6
2017-07-12T11:56:56.048Z,19.9
2017-07-12T11:58:14.780Z,20.4
2017-07-12T11:59:33.523Z,21.2
2017-07-12T12:00:52.238Z,21.5
2017-07-12T12:02:10.919Z,21.7
2017-07-12T12:03:29.608Z,21.6
2017-07-12T12:04:48.284Z,21.1
2017-07-12T12:06:06.985Z,20.6
2017-07-12T12:07:25.670Z,20.3
2017-07-12T12:08:44.397Z,19.9
2017-07-12T12:10:03.079Z,19.7
2017-07-12T12:11:21.821Z,19.6
2017-07-12T12:12:40.515Z,19.7
2017-07-12T12:13:59.206Z,20
2017-07-12T12:15:17.926Z,20.3
2017-07-12T12:16:36.633Z,20.6
2017-07-12T12:17:55.340Z,20.6
2017-07-12T12:19:14.092Z,20.1
2017-07-12T12:20:32.770Z,19.8
2017-07-12T12:21:51.518Z,19.7
2017-07-12T12:23:10.198Z,19.6
2017-07-12T12:24:28.964Z,19.7
2017-07-12T12:25:47.649Z,19.8
2017-07-12T12:27:06.343Z,20.5
2017-07-12T12:28:25.033Z,20.6
2017-07-12T12:29:43.721Z,20.8
2017-07-12T12:31:02.449Z,23.1
2017-07-12T12:32:21.157Z,22.6
2017-07-12T12:33:39.854Z,21.9
2017-07-12T12:34:58.571Z,21.1
2017-07-12T12:36:17.246Z,20.6
2017-07-12T12:37:35.982Z,20.3
2017-07-12T12:38:54.705Z,20.1
2017-07-12T12:40:13.392Z,19.9
2017-07-12T12:41:32.130Z,19.7
2017-07-12T12:42:50.842Z,19.6
2017-07-12T12:44:09.569Z,19.4
2017-07-12T12:45:28.252Z,19.3
2017-07-12T12:46:46.934Z,19.1
2017-07-12T12:48:05.657Z,19.1
2017-07-12T12:49:24.342Z,19.1
2017-07-12T12:50:43.053Z,19.3
2017-07-12T12:52:01.724Z,19.2
2017-07-12T12:53:20.469Z,19.1
2017-07-12T12:54:39.169Z,19.1
2017-07-12T12:55:57.851Z,19.2
2017-07-12T12:57:16.578Z,19.4
2017-07-12T12:58:35.266Z,19.4
2017-07-12T12:59:53.998Z,19.2
2017-07-12T13:01:12.681Z,19
2017-07-12T13:02:31.363Z,18.7
2017-07-12T13:03:50.083Z,18.3
2017-07-12T13:05:08.814Z,18.2
2017-07-12T13:06:27.495Z,18.1
2017-07-12T13:07:46.218Z,18
2017-07-12T13:09:04.942Z,18
2017-07-12T13:10:23.680Z,17.9
2017-07-12T13:11:42.406Z,18.1
2017-07-12T13:13:01.106Z,18.1
2017-07-12T13:14:19.812Z,18
2017-07-12T13:15:38.488Z,17.9
2017-07-12T13:16:57.163Z,17.7
2017-07-12T13:18:15.852Z,17.5
2017-07-12T13:19:34.604Z,17.3
2017-07-12T13:20:53.324Z,17.1
2017-07-12T13:22:12.001Z,16.9
2017-07-12T13:23:30.739Z,16.7
2017-07-12T13:24:49.422Z,16.6
2017-07-12T13:26:08.115Z,16.6
2017-07-12T13:27:26.836Z,16.6
2017-07-12T13:28:45.571Z,16.6
2017-07-12T13:30:04.262Z,16.7
2017-07-12T13:31:22.944Z,16.7
2017-07-12T13:32:41.626Z,16.7
2017-07-12T13:34:00.349Z,17
2017-07-12T13:35:19.143Z,17.2
2017-07-12T13:36:37.826Z,17.7
2017-07-12T13:37:56.559Z,18.6
2017-07-12T13:39:15.239Z,19.9
2017-07-12T13:40:33.955Z,20.9
2017-07-12T13:41:52.639Z,23.3
2017-07-12T13:43:11.323Z,24.3
2017-07-12T13:44:30.048Z,24.1
2017-07-12T13:45:48.742Z,23.6
2017-07-12T13:47:07.457Z,23.3
2017-07-12T13:48:26.178Z,23.8
2017-07-12T13:49:44.860Z,25
2017-07-12T13:51:03.588Z,26.7
2017-07-12T13:52:22.315Z,27.2
2017-07-12T13:53:41.000Z,26.9
2017-07-12T13:54:59.695Z,26.2
2017-07-12T13:56:18.397Z,25.2
2017-07-12T13:57:37.118Z,24.3
2017-07-12T13:58:55.801Z,23.2
2017-07-12T14:00:14.479Z,22.4
2017-07-12T14:01:33.174Z,21.9
2017-07-12T14:02:51.853Z,21.6
2017-07-12T14:04:10.583Z,21.3
2017-07-12T14:05:29.319Z,21.1
2017-07-12T14:06:48.036Z,20.8
2017-07-12T14:08:06.721Z,20.5
2017-07-12T14:09:25.459Z,21
2017-07-12T14:10:44.158Z,22
2017-07-12T14:12:02.856Z,22.8
2017-07-12T14:13:21.576Z,24.3
2017-07-12T14:14:40.290Z,26.1
2017-07-12T14:15:58.992Z,28.2
2017-07-12T14:17:17.727Z,29.1
2017-07-12T14:18:36.425Z,33.4
2017-07-12T14:19:55.120Z,33.6
2017-07-12T14:21:13.817Z,34.2
2017-07-12T14:22:32.568Z,32.4
2017-07-12T14:23:51.304Z,34.3
2017-07-12T14:25:09.986Z,33.8
2017-07-12T14:26:28.670Z,31.4
2017-07-12T14:27:47.435Z,28.6
2017-07-12T14:29:06.128Z,25.8
2017-07-12T14:30:24.840Z,24.6
2017-07-12T14:31:43.573Z,24
2017-07-12T14:33:02.277Z,24
2017-07-12T14:34:21.009Z,23.9
2017-07-12T14:35:39.743Z,23.5
2017-07-12T14:36:58.431Z,23.3
2017-07-12T14:38:17.155Z,23
2017-07-12T14:39:35.889Z,23.5
2017-07-12T14:40:54.576Z,24
2017-07-12T14:42:13.314Z,24.1
2017-07-12T14:43:31.991Z,24.2
2017-07-12T14:44:50.676Z,25.4
2017-07-12T14:46:09.395Z,26.2
2017-07-12T14:47:28.084Z,26.5
2017-07-12T14:48:46.825Z,26.9
2017-07-12T14:50:05.511Z,26.6
2017-07-12T14:51:24.191Z,25.7
2017-07-12T14:52:42.873Z,25.9
2017-07-12T14:54:01.584Z,26
2017-07-12T14:55:20.276Z,25.7
2017-07-12T14:56:39.046Z,24.8
2017-07-12T14:57:57.744Z,23.5
2017-07-12T14:59:16.433Z,22.8
2017-07-12T15:00:35.173Z,22.3
2017-07-12T15:01:53.891Z,21.9
2017-07-12T15:03:12.583Z,21.8
2017-07-12T15:04:31.292Z,21.7
2017-07-12T15:05:49.984Z,21.5
2017-07-12T15:07:08.676Z,21.6
2017-07-12T15:08:27.431Z,21.5
2017-07-12T15:09:46.148Z,21.1
2017-07-12T15:11:04.860Z,20.8
2017-07-12T15:12:23.574Z,20.4
2017-07-12T15:13:42.265Z,19.9
2017-07-12T15:15:00.971Z,19.8
2017-07-12T15:16:19.668Z,19.6
2017-07-12T15:17:38.348Z,19.6
2017-07-12T15:18:57.031Z,19.7
2017-07-12T15:20:15.719Z,19.7
2017-07-12T15:21:34.451Z,19.8
2017-07-12T15:22:53.126Z,19.8
2017-07-12T15:24:11.866Z,19.7
2017-07-12T15:25:30.598Z,19.5
2017-07-12T15:26:49.326Z,19.5
2017-07-12T15:28:08.014Z,19.5
2017-07-12T15:29:26.690Z,19.6
2017-07-12T15:30:45.399Z,19.7
2017-07-12T15:32:04.130Z,19.5
2017-07-12T15:33:22.816Z,19.4
2017-07-12T15:34:41.516Z,19.4
2017-07-12T15:36:00.213Z,19.3
2017-07-12T15:37:18.968Z,19.3
2017-07-12T15:38:37.678Z,19.5
2017-07-12T15:39:56.358Z,19.6
2017-07-12T15:41:15.079Z,19.8
2017-07-12T15:42:33.781Z,19.7
2017-07-12T15:43:52.465Z,19.6
2017-07-12T15:45:11.152Z,19.4
2017-07-12T15:46:29.850Z,19.3
2017-07-12T15:47:48.579Z,19.2
2017-07-12T15:49:07.265Z,19
2017-07-12T15:50:25.947Z,18.8
2017-07-12T15:51:44.650Z,18.6
2017-07-12T15:53:03.365Z,18.6
2017-07-12T15:54:22.067Z,18.5
2017-07-12T15:55:40.795Z,18.1
2017-07-12T15:56:59.543Z,17.8
2017-07-12T15:58:18.243Z,17.7
2017-07-12T15:59:36.942Z,17.9
2017-07-12T16:00:55.639Z,17.6
2017-07-12T16:02:14.353Z,17.3
2017-07-12T16:03:33.042Z,17.7
2017-07-12T16:04:51.719Z,17.8
2017-07-12T16:06:10.412Z,18.4
2017-07-12T16:07:29.149Z,19.1
2017-07-12T16:08:47.850Z,19.6
2017-07-12T16:10:06.609Z,20.1
2017-07-12T16:11:25.383Z,20.4
2017-07-12T16:12:44.138Z,20.6
2017-07-12T16:14:02.817Z,20.4
2017-07-12T16:15:21.555Z,20.1
2017-07-12T16:16:40.283Z,19.9
2017-07-12T16:17:59.011Z,19.9
2017-07-12T16:19:17.698Z,19.8
2017-07-12T16:20:36.379Z,19.6
2017-07-12T16:21:55.061Z,19.6
2017-07-12T16:23:13.812Z,19.7
2017-07-12T16:24:32.493Z,19.9
2017-07-12T16:25:51.184Z,20
2017-07-12T16:27:09.859Z,20.1
2017-07-12T16:28:28.597Z,19.7
2017-07-12T16:29:47.312Z,19.2
2017-07-12T16:31:06.054Z,18.9
2017-07-12T16:32:24.742Z,18.5
2017-07-12T16:33:43.448Z,18.1
2017-07-12T16:35:02.145Z,17.7
2017-07-12T16:36:20.832Z,17.5
2017-07-12T16:37:39.576Z,17.3
2017-07-12T16:38:58.288Z,17.2
2017-07-12T16:40:17.006Z,17
2017-07-12T16:41:35.691Z,16.9
2017-07-12T16:42:54.500Z,16.8
2017-07-12T16:44:13.241Z,16.6
2017-07-12T16:45:31.923Z,16.4
2017-07-12T16:46:50.605Z,16.4
2017-07-12T16:48:09.320Z,16.3
2017-07-12T16:49:28.019Z,16.2
2017-07-12T16:50:46.758Z,16.2
2017-07-12T16:52:05.438Z,16.2
2017-07-12T16:53:24.167Z,16.1
2017-07-12T16:54:42.920Z,16.1
2017-07-12T16:56:01.651Z,16.1
2017-07-12T16:57:20.389Z,16.1
2017-07-12T16:58:39.141Z,16.1
2017-07-12T16:59:57.866Z,16.1
2017-07-12T17:01:16.573Z,16.1
2017-07-12T17:02:35.286Z,16.2
2017-07-12T17:03:54.005Z,16.1
2017-07-12T17:05:12.714Z,16
2017-07-12T17:06:31.407Z,16
2017-07-12T17:07:50.095Z,16
2017-07-12T17:09:08.840Z,15.9
2017-07-12T17:10:27.578Z,15.8
2017-07-12T17:11:46.255Z,15.8
2017-07-12T17:13:04.933Z,16
2017-07-12T17:14:23.615Z,16.1
2017-07-12T17:15:42.324Z,16.2
2017-07-12T17:17:01.015Z,16.5
2017-07-12T17:18:19.790Z,16.5
2017-07-12T17:19:38.521Z,16.5
2017-07-12T17:20:57.203Z,16.6
2017-07-12T17:22:15.892Z,16.6
2017-07-12T17:23:34.619Z,16.4
2017-07-12T17:24:53.323Z,16.3
2017-07-12T17:26:12.011Z,16.3
2017-07-12T17:27:30.712Z,16
2017-07-12T17:28:49.397Z,15.8
2017-07-12T17:30:08.086Z,15.7
2017-07-12T17:31:26.854Z,15.7
2017-07-12T17:32:45.577Z,15.6
2017-07-12T17:34:04.251Z,15.5
2017-07-12T17:35:22.936Z,15.4
2017-07-12T17:36:41.629Z,15.3
2017-07-12T17:38:00.348Z,15.2
2017-07-12T17:39:19.059Z,15.1
2017-07-12T17:40:37.747Z,15
2017-07-12T17:41:56.448Z,15
2017-07-12T17:43:15.187Z,15.1
2017-07-12T17:44:33.899Z,15